Time;durP1;ratioP1;P1;durP2;ratioP2;P2;SDS_P1;SDS_P2;PMS_P1;PMS_P2;Temp;Humidity;BMP_temperature;BMP_pressure;BME280_temperature;BME280_humidity;BME280_pressure;Samples;Min_cycle;Max_cycle;Signal;HPM_P1;HPM_P2
2023/05/17 00:00:32;;;;;;;6.90;4.90;;;;;;;17.63;56.82;100572.27;108905;1257;59622;-52
2023/05/17 00:02:59;;;;;;;8.10;5.10;;;;;;;17.65;56.69;100569.73;108861;1254;67266;-53
2023/05/17 00:05:26;;;;;;;7.70;5.10;;;;;;;17.66;56.91;100570.52;109001;1254;63479;-53
2023/05/17 00:07:53;;;;;;;7.80;5.90;;;;;;;17.63;57.00;100572.76;108854;1258;66482;-52
2023/05/17 00:10:20;;;;;;;10.80;5.80;;;;;;;17.61;57.08;100574.51;108929;1254;58366;-53
2023/05/17 00:12:47;;;;;;;8.20;5.30;;;;;;;17.60;57.15;100577.54;108846;1254;58236;-54
2023/05/17 00:15:14;;;;;;;12.00;5.20;;;;;;;17.63;57.29;100576.35;108891;1254;66952;-53
2023/05/17 00:17:41;;;;;;;9.50;5.40;;;;;;;17.69;57.16;100577.33;108885;1256;62736;-53
2023/05/17 00:20:08;;;;;;;8.30;5.80;;;;;;;17.71;57.18;100579.36;108887;1254;65127;-53
2023/05/17 00:22:35;;;;;;;9.40;5.80;;;;;;;17.72;56.94;100582.27;108886;1254;59022;-53
2023/05/17 00:25:02;;;;;;;7.40;5.30;;;;;;;17.72;57.04;100581.09;108941;1259;58220;-53
2023/05/17 00:27:29;;;;;;;10.00;6.20;;;;;;;17.71;57.02;100583.31;108924;1259;67026;-53
2023/05/17 00:29:56;;;;;;;8.40;5.50;;;;;;;17.69;56.92;100587.76;108949;1259;64148;-53
2023/05/17 00:32:23;;;;;;;11.30;5.80;;;;;;;17.66;56.87;100585.27;108869;1259;66145;-53
2023/05/17 00:34:50;;;;;;;7.00;5.20;;;;;;;17.63;56.79;100587.89;108854;1254;58489;-52
2023/05/17 00:37:17;;;;;;;8.40;5.40;;;;;;;17.59;56.81;100591.27;108784;1255;58390;-52
2023/05/17 00:39:44;;;;;;;10.30;5.70;;;;;;;17.57;57.00;100592.41;108850;1257;66070;-52
2023/05/17 00:42:11;;;;;;;7.60;4.70;;;;;;;17.56;57.17;100591.04;108825;1260;64189;-52
2023/05/17 00:44:38;;;;;;;10.40;4.80;;;;;;;17.60;57.62;100589.41;108805;1254;66093;-52
2023/05/17 00:47:05;;;;;;;10.00;5.20;;;;;;;17.66;57.73;100587.77;108923;1257;59898;-52
2023/05/17 00:49:32;;;;;;;11.30;5.40;;;;;;;17.71;57.72;100589.10;108913;1254;58608;-52
2023/05/17 00:51:59;;;;;;;7.70;5.50;;;;;;;17.75;57.53;100585.64;108923;1254;67005;-53
2023/05/17 00:54:26;;;;;;;10.20;5.50;;;;;;;17.78;57.18;100586.61;108824;1254;63752;-53
2023/05/17 00:56:53;;;;;;;10.80;5.40;;;;;;;17.79;57.30;100588.44;108819;1257;64952;-53
2023/05/17 00:59:21;;;;;;;8.70;5.40;;;;;;;17.79;57.49;100589.70;108799;1259;59359;-52
2023/05/17 01:01:48;;;;;;;9.50;5.30;;;;;;;17.77;57.19;100590.67;108886;1254;58757;-53
2023/05/17 01:04:15;;;;;;;9.30;5.40;;;;;;;17.75;56.80;100591.42;108899;1254;67676;-52
2023/05/17 01:06:42;;;;;;;8.50;5.10;;;;;;;17.73;56.59;100592.83;108914;1254;64541;-53
2023/05/17 01:09:09;;;;;;;8.50;5.00;;;;;;;17.71;56.46;100593.36;108923;1254;65117;-53
2023/05/17 01:11:55;;;;;;;7.40;4.50;;;;;;;17.69;56.78;100593.95;108754;1260;58952;-53
2023/05/17 01:14:26;;;;;;;8.20;5.00;;;;;;;17.67;56.53;100589.05;108783;1254;59077;-52
2023/05/17 01:17:00;;;;;;;7.70;4.90;;;;;;;17.63;56.33;100589.23;108850;1254;66108;-52
2023/05/17 01:19:52;;;;;;;6.80;4.50;;;;;;;17.62;56.46;100589.75;108767;1254;62613;-53
2023/05/17 01:22:31;;;;;;;7.50;4.30;;;;;;;17.66;56.85;100591.31;108803;1254;64908;-53
2023/05/17 01:24:58;;;;;;;8.80;4.90;;;;;;;17.70;56.72;100594.91;108778;1254;60979;-54
2023/05/17 01:27:24;;;;;;;10.30;5.40;;;;;;;17.74;56.75;100595.59;108909;1257;58165;-53
2023/05/17 01:29:51;;;;;;;10.00;5.70;;;;;;;17.75;56.86;100593.83;108720;1255;66204;-52
2023/05/17 01:32:18;;;;;;;13.40;5.30;;;;;;;17.76;56.73;100596.09;108712;1261;62316;-53
2023/05/17 01:34:45;;;;;;;8.90;6.00;;;;;;;17.75;56.86;100593.30;108772;1257;64809;-53
2023/05/17 01:37:12;;;;;;;15.10;6.30;;;;;;;17.74;57.24;100591.16;108809;1254;58979;-53
2023/05/17 01:39:40;;;;;;;11.90;5.60;;;;;;;17.72;57.63;100591.46;108772;1255;58122;-52
2023/05/17 01:42:13;;;;;;;9.80;5.40;;;;;;;17.71;57.87;100591.27;108737;1254;65944;-52
2023/05/17 01:44:54;;;;;;;11.80;5.00;;;;;;;17.73;57.78;100594.92;108668;1254;63733;-52
2023/05/17 01:47:39;;;;;;;10.70;5.50;;;;;;;17.76;57.83;100591.43;108716;1255;65731;-53
2023/05/17 01:50:06;;;;;;;8.20;5.10;;;;;;;17.75;57.93;100590.80;108752;1254;59354;-53
2023/05/17 01:52:37;;;;;;;9.60;5.30;;;;;;;17.73;58.07;100587.86;108712;1254;59382;-53
2023/05/17 01:55:11;;;;;;;8.90;5.00;;;;;;;17.70;58.12;100586.60;108713;1254;68717;-53
2023/05/17 01:57:38;;;;;;;7.90;5.30;;;;;;;17.66;57.96;100590.54;108828;1254;62593;-52
2023/05/17 02:00:07;;;;;;;7.50;5.20;;;;;;;17.62;58.00;100593.64;108817;1254;74712;-53
2023/05/17 02:02:44;;;;;;;10.30;5.10;;;;;;;17.58;58.13;100591.41;108837;1260;61500;-53
2023/05/17 02:05:12;;;;;;;7.40;4.90;;;;;;;17.55;58.07;100592.08;108810;1254;60355;-52
2023/05/17 02:07:39;;;;;;;7.70;4.80;;;;;;;17.52;58.22;100593.42;108941;1254;67684;-53
2023/05/17 02:10:06;;;;;;;8.10;4.30;;;;;;;17.54;58.47;100596.09;108782;1254;62671;-52
2023/05/17 02:12:34;;;;;;;7.90;4.40;;;;;;;17.59;58.73;100597.30;108642;1254;66109;-53
2023/05/17 02:15:02;;;;;;;10.80;4.80;;;;;;;17.63;58.82;100597.61;108806;1254;59739;-53
2023/05/17 02:17:28;;;;;;;9.10;5.10;;;;;;;17.62;58.91;100601.90;108957;1259;59030;-52
2023/05/17 02:19:55;;;;;;;7.50;4.80;;;;;;;17.62;59.07;100600.73;108906;1255;67485;-52
2023/05/17 02:22:22;;;;;;;6.70;4.50;;;;;;;17.63;58.99;100603.27;108872;1254;62461;-53
2023/05/17 02:24:49;;;;;;;9.90;4.80;;;;;;;17.63;58.82;100602.86;108938;1254;66094;-52
2023/05/17 02:27:16;;;;;;;8.70;4.70;;;;;;;17.62;58.81;100603.76;108911;1254;59126;-52
2023/05/17 02:29:43;;;;;;;8.00;5.00;;;;;;;17.58;58.87;100603.77;108876;1254;58874;-52
2023/05/17 02:32:10;;;;;;;8.20;4.30;;;;;;;17.55;59.07;100603.98;108837;1254;65882;-53
2023/05/17 02:34:37;;;;;;;11.40;4.90;;;;;;;17.57;59.12;100605.64;108848;1254;64029;-52
2023/05/17 02:37:04;;;;;;;7.20;4.50;;;;;;;17.63;58.93;100610.58;108979;1254;66923;-52
2023/05/17 02:39:32;;;;;;;8.90;5.20;;;;;;;17.66;59.00;100608.82;108821;1254;58531;-52
2023/05/17 02:41:59;;;;;;;9.70;4.70;;;;;;;17.68;59.08;100611.71;108783;1254;59336;-53
2023/05/17 02:44:26;;;;;;;6.30;5.00;;;;;;;17.69;59.27;100614.63;108891;1254;66247;-52
2023/05/17 02:46:53;;;;;;;9.40;4.60;;;;;;;17.69;59.41;100619.02;108833;1254;63804;-53
2023/05/17 02:49:20;;;;;;;7.10;5.40;;;;;;;17.70;59.45;100618.55;108902;1254;66466;-53
2023/05/17 02:51:47;;;;;;;7.90;4.90;;;;;;;17.71;59.35;100623.77;108815;1257;59032;-53
2023/05/17 02:54:14;;;;;;;9.40;4.90;;;;;;;17.71;59.38;100623.73;108693;1257;58383;-53
2023/05/17 02:56:41;;;;;;;7.00;4.30;;;;;;;17.75;59.25;100622.07;108820;1258;67399;-52
2023/05/17 02:59:08;;;;;;;6.70;4.00;;;;;;;17.80;58.84;100623.44;108897;1254;62827;-53
2023/05/17 03:01:36;;;;;;;8.60;4.30;;;;;;;17.82;58.68;100621.86;108771;1254;66008;-53
2023/05/17 03:04:03;;;;;;;9.00;5.30;;;;;;;17.82;58.45;100620.66;108855;1254;58353;-53
2023/05/17 03:06:30;;;;;;;7.50;4.40;;;;;;;17.82;58.37;100626.77;108723;1257;60196;-53
2023/05/17 03:08:57;;;;;;;7.50;4.50;;;;;;;17.83;58.39;100631.42;108892;1257;66400;-53
2023/05/17 03:11:24;;;;;;;7.00;5.20;;;;;;;17.86;58.43;100630.65;108774;1260;62505;-53
2023/05/17 03:13:53;;;;;;;8.10;4.50;;;;;;;17.90;58.16;100634.04;108869;1254;66336;-53
2023/05/17 03:16:23;;;;;;;7.60;5.20;;;;;;;17.90;58.09;100629.50;108925;1256;58456;-54
2023/05/17 03:18:51;;;;;;;7.50;4.70;;;;;;;17.90;58.05;100628.60;108784;1254;58589;-53
2023/05/17 03:21:18;;;;;;;7.70;4.70;;;;;;;17.96;57.89;100629.14;108837;1254;185432;-53
2023/05/17 03:36:47;;;;;;;7.00;3.90;;;;;;;18.31;57.22;100644.95;102658;1283;604136;-53
2023/05/17 03:39:14;;;;;;;7.10;3.70;;;;;;;18.78;55.78;100646.30;103813;1274;96934;-52
2023/05/17 03:41:41;;;;;;;7.60;4.50;;;;;;;18.80;55.37;100643.81;103912;1267;59127;-52
2023/05/17 03:44:09;;;;;;;7.80;4.10;;;;;;;18.77;55.08;100652.64;108209;1266;66282;-53
2023/05/17 03:46:36;;;;;;;9.00;4.80;;;;;;;18.74;54.60;100656.15;108258;1265;63750;-53
2023/05/17 03:49:03;;;;;;;9.00;4.00;;;;;;;18.72;54.42;100659.02;108164;1266;66334;-53
2023/05/17 03:51:32;;;;;;;7.30;4.10;;;;;;;18.70;54.11;100659.02;108188;1265;57969;-53
2023/05/17 03:53:59;;;;;;;7.00;4.20;;;;;;;18.68;53.93;100662.83;108180;1265;58637;-53
2023/05/17 03:56:28;;;;;;;11.60;4.40;;;;;;;18.67;53.60;100666.66;108130;1266;65977;-53
2023/05/17 03:58:55;;;;;;;8.10;4.30;;;;;;;18.67;53.56;100668.09;108214;1265;64229;-53
2023/05/17 04:01:22;;;;;;;7.80;4.00;;;;;;;18.67;53.72;100669.36;108152;1266;66190;-53
2023/05/17 04:03:49;;;;;;;9.30;4.70;;;;;;;18.67;53.85;100671.36;108143;1267;59637;-53
2023/05/17 04:06:17;;;;;;;6.10;4.30;;;;;;;18.67;54.04;100675.06;108063;1266;57956;-53
2023/05/17 04:08:44;;;;;;;7.20;4.60;;;;;;;18.70;53.73;100677.78;108208;1266;68252;-53
2023/05/17 04:11:14;;;;;;;7.40;4.20;;;;;;;18.72;53.44;100677.54;108222;1265;63527;-53
2023/05/17 04:13:41;;;;;;;7.90;4.50;;;;;;;18.72;53.39;100677.45;108239;1265;65923;-53
2023/05/17 04:16:08;;;;;;;7.50;4.40;;;;;;;18.73;53.03;100677.00;108133;1265;57755;-53
2023/05/17 04:18:37;;;;;;;8.40;4.00;;;;;;;18.77;52.82;100686.44;108180;1266;57496;-53
2023/05/17 04:21:04;;;;;;;6.80;4.50;;;;;;;18.78;52.24;100688.06;108225;1265;67144;-52
2023/05/17 04:23:32;;;;;;;8.90;4.90;;;;;;;18.80;51.81;100687.90;108144;1266;62437;-55
2023/05/17 04:26:00;;;;;;;9.40;4.80;;;;;;;18.83;51.62;100687.04;108179;1265;66251;-54
2023/05/17 04:28:27;;;;;;;10.00;4.60;;;;;;;18.86;51.47;100685.26;108105;1271;58042;-53
2023/05/17 04:30:54;;;;;;;8.40;5.20;;;;;;;18.87;51.22;100687.05;108631;1258;57712;-53
2023/05/17 04:33:22;;;;;;;7.10;4.50;;;;;;;18.88;51.06;100690.39;108675;1260;66632;-53
2023/05/17 04:35:50;;;;;;;7.80;4.60;;;;;;;18.88;50.91;100690.84;108671;1257;62709;-54
2023/05/17 04:38:17;;;;;;;8.30;4.50;;;;;;;18.89;51.04;100695.17;108600;1260;64896;-53
2023/05/17 04:40:44;;;;;;;8.10;5.40;;;;;;;18.91;51.00;100697.44;108519;1257;58835;-53
2023/05/17 04:43:11;;;;;;;10.40;4.20;;;;;;;18.94;50.63;100699.67;108496;1257;59066;-53
2023/05/17 04:45:39;;;;;;;8.20;4.60;;;;;;;18.97;50.78;100700.92;108573;1258;66523;-53
2023/05/17 04:48:07;;;;;;;9.30;5.10;;;;;;;19.00;50.53;100700.64;108583;1257;68127;-53
2023/05/17 04:50:34;;;;;;;8.30;4.60;;;;;;;19.02;50.50;100705.35;108532;1257;65863;-53
2023/05/17 04:53:03;;;;;;;7.80;4.50;;;;;;;19.03;50.66;100706.52;108448;1258;62453;-53
2023/05/17 04:55:32;;;;;;;6.30;4.20;;;;;;;19.04;50.87;100711.47;108551;1257;57653;-52
2023/05/17 04:57:59;;;;;;;6.70;4.30;;;;;;;19.07;50.97;100718.67;108569;1258;66838;-52
2023/05/17 05:00:26;;;;;;;8.10;4.60;;;;;;;19.11;50.80;100715.55;108538;1257;63822;-56
2023/05/17 05:03:00;;;;;;;8.30;4.60;;;;;;;19.17;50.13;100717.54;108565;1259;64888;-56
2023/05/17 05:05:28;;;;;;;8.30;4.60;;;;;;;19.24;50.05;100716.45;108575;1257;57980;-56
2023/05/17 05:07:56;;;;;;;9.50;4.90;;;;;;;19.30;49.99;100719.52;108530;1257;58120;-56
2023/05/17 05:10:23;;;;;;;9.00;4.40;;;;;;;19.37;50.09;100721.23;108697;1259;66451;-57
2023/05/17 05:12:50;;;;;;;8.80;4.70;;;;;;;19.43;49.90;100720.23;108621;1257;64588;-56
2023/05/17 05:15:17;;;;;;;7.50;4.80;;;;;;;19.48;49.79;100720.71;108611;1257;66250;-55
2023/05/17 05:17:50;;;;;;;7.50;4.60;;;;;;;19.54;49.79;100723.25;108544;1259;57428;-54
2023/05/17 05:20:18;;;;;;;8.60;5.30;;;;;;;19.60;49.47;100722.23;108510;1257;57684;-54
2023/05/17 05:22:44;;;;;;;10.10;4.50;;;;;;;19.65;49.43;100727.51;108550;1261;67055;-54
2023/05/17 05:25:12;;;;;;;7.90;4.60;;;;;;;19.70;49.40;100729.65;108577;1257;64461;-54
2023/05/17 05:27:39;;;;;;;7.90;4.70;;;;;;;19.75;49.55;100727.77;108498;1259;64706;-54
2023/05/17 05:30:07;;;;;;;7.80;4.90;;;;;;;19.81;49.58;100728.40;108550;1257;57993;-54
2023/05/17 05:32:36;;;;;;;9.20;5.30;;;;;;;19.87;49.18;100732.14;108512;1257;58271;-53
2023/05/17 05:35:04;;;;;;;8.40;4.90;;;;;;;19.94;48.77;100733.90;108550;1259;66224;-54
2023/05/17 05:37:31;;;;;;;7.50;5.30;;;;;;;19.98;48.17;100736.59;108542;1257;64379;-54
2023/05/17 05:39:58;;;;;;;9.90;5.50;;;;;;;20.03;48.29;100736.38;108554;1257;65959;-50
2023/05/17 05:42:26;;;;;;;8.60;5.10;;;;;;;20.10;48.23;100741.62;108618;1257;57411;-52
2023/05/17 05:44:53;;;;;;;9.20;4.70;;;;;;;20.16;48.27;100744.44;108611;1257;57604;-53
2023/05/17 05:47:21;;;;;;;8.40;4.80;;;;;;;20.22;48.47;100740.23;108506;1257;66513;-53
2023/05/17 05:49:48;;;;;;;9.00;5.20;;;;;;;20.28;48.61;100739.77;108574;1257;63353;-54
2023/05/17 05:52:15;;;;;;;7.10;4.80;;;;;;;20.33;48.64;100741.67;108624;1257;66599;-53
2023/05/17 05:54:42;;;;;;;7.80;4.60;;;;;;;20.39;48.70;100744.56;108481;1257;57725;-53
2023/05/17 05:57:09;;;;;;;8.20;4.80;;;;;;;20.43;48.30;100746.38;108511;1260;59089;-53
2023/05/17 05:59:36;;;;;;;7.00;4.20;;;;;;;20.48;48.32;100749.14;108569;1258;66346;-54
2023/05/17 06:02:04;;;;;;;9.00;5.30;;;;;;;20.55;47.98;100746.05;108490;1257;62550;-52
2023/05/17 06:04:31;;;;;;;10.00;5.60;;;;;;;20.61;48.13;100745.24;108568;1258;64721;-53
2023/05/17 06:07:11;;;;;;;6.90;4.50;;;;;;;20.67;48.07;100748.94;108531;1256;58136;-53
2023/05/17 06:09:38;;;;;;;14.00;5.60;;;;;;;20.74;47.93;100750.33;108543;1257;58078;-53
2023/05/17 06:12:05;;;;;;;9.30;4.30;;;;;;;20.82;47.45;100748.15;108631;1257;65559;-53
2023/05/17 06:14:31;;;;;;;8.30;5.10;;;;;;;20.91;47.35;100745.13;108636;1257;63811;-67
2023/05/17 06:16:58;;;;;;;7.80;4.50;;;;;;;21.01;46.98;100751.91;108524;1257;65152;-59
2023/05/17 06:19:25;;;;;;;8.40;4.30;;;;;;;21.10;46.91;100753.49;108598;1258;59172;-60
2023/05/17 06:21:52;;;;;;;8.50;4.70;;;;;;;21.19;46.43;100753.34;108558;1257;57820;-61
2023/05/17 06:24:22;;;;;;;9.30;4.70;;;;;;;21.28;46.42;100755.68;108511;1257;65092;-62
2023/05/17 06:26:49;;;;;;;8.10;4.80;;;;;;;21.39;46.32;100757.27;108563;1257;70525;-63
2023/05/17 06:29:16;;;;;;;8.50;5.00;;;;;;;21.45;46.14;100757.57;108548;1259;66161;-62
2023/05/17 06:31:43;;;;;;;7.40;4.60;;;;;;;21.53;45.97;100761.16;108498;1258;58803;-64
2023/05/17 06:34:12;;;;;;;9.40;4.40;;;;;;;21.59;44.97;100763.72;108606;1261;57928;-62
2023/05/17 06:36:39;;;;;;;7.90;4.80;;;;;;;21.66;44.34;100766.61;108547;1257;68039;-63
2023/05/17 06:39:07;;;;;;;7.30;4.60;;;;;;;21.73;44.19;100766.00;108596;1257;63578;-64
2023/05/17 06:41:34;;;;;;;9.00;4.80;;;;;;;21.80;44.13;100766.73;108523;1259;64930;-63
2023/05/17 06:44:01;;;;;;;9.90;4.80;;;;;;;21.89;44.10;100767.41;108492;1259;57635;-63
2023/05/17 06:46:28;;;;;;;8.80;4.80;;;;;;;22.01;44.04;100768.67;108673;1258;57681;-62
2023/05/17 06:48:56;;;;;;;9.90;4.70;;;;;;;22.12;43.81;100766.20;108456;1257;66409;-62
2023/05/17 06:51:24;;;;;;;10.00;4.60;;;;;;;22.23;43.94;100766.49;108575;1257;62523;-63
2023/05/17 06:53:52;;;;;;;8.30;4.60;;;;;;;22.35;44.20;100771.80;108559;1257;66183;-63
2023/05/17 06:56:19;;;;;;;9.80;5.20;;;;;;;22.47;44.63;100767.20;108527;1258;57477;-63
2023/05/17 06:58:46;;;;;;;7.70;4.70;;;;;;;22.57;44.29;100762.72;108621;1257;57945;-63
2023/05/17 07:01:14;;;;;;;9.10;5.20;;;;;;;22.68;43.88;100761.70;108515;1259;68842;-59
2023/05/17 07:03:42;;;;;;;7.40;4.80;;;;;;;22.79;44.03;100763.52;108596;1258;62668;-62
2023/05/17 07:06:09;;;;;;;9.80;5.20;;;;;;;22.88;43.83;100757.61;108622;1259;65091;-62
2023/05/17 07:08:36;;;;;;;9.00;4.70;;;;;;;22.94;43.46;100758.20;108567;1257;57564;-62
2023/05/17 07:11:04;;;;;;;9.60;5.10;;;;;;;22.99;43.20;100759.67;108604;1258;57779;-62
2023/05/17 07:13:34;;;;;;;8.20;4.80;;;;;;;23.04;43.03;100756.23;108578;1257;65365;-62
2023/05/17 07:16:01;;;;;;;8.40;4.40;;;;;;;23.08;42.73;100756.76;108586;1257;62697;-62
2023/05/17 07:18:28;;;;;;;11.70;4.50;;;;;;;23.13;42.81;100754.20;108681;1257;65147;-61
2023/05/17 07:20:55;;;;;;;11.50;5.30;;;;;;;23.21;42.63;100752.95;108613;1257;59597;-61
2023/05/17 07:23:22;;;;;;;9.90;4.70;;;;;;;23.30;42.67;100753.34;108609;1258;58430;-60
2023/05/17 07:25:49;;;;;;;8.00;4.80;;;;;;;23.38;42.79;100756.08;108596;1257;65117;-61
2023/05/17 07:28:16;;;;;;;7.60;3.90;;;;;;;23.46;42.72;100756.64;108617;1262;63479;-61
2023/05/17 07:30:43;;;;;;;6.00;3.50;;;;;;;23.55;41.98;100758.79;108655;1257;66885;-62
2023/05/17 07:33:10;;;;;;;8.10;3.60;;;;;;;23.66;39.84;100762.04;108573;1258;58173;-63
2023/05/17 07:35:38;;;;;;;6.60;3.50;;;;;;;23.76;38.37;100761.30;108672;1257;58094;-63
2023/05/17 07:38:05;;;;;;;8.30;4.00;;;;;;;23.86;38.44;100767.17;108630;1257;66768;-60
2023/05/17 07:40:32;;;;;;;8.40;3.80;;;;;;;23.98;38.67;100763.63;108659;1257;62619;-62
2023/05/17 07:43:00;;;;;;;7.00;3.60;;;;;;;24.10;37.45;100761.59;108599;1257;65166;-61
2023/05/17 07:45:27;;;;;;;6.30;3.80;;;;;;;24.20;37.56;100761.66;108633;1259;60122;-61
2023/05/17 07:47:55;;;;;;;5.60;3.20;;;;;;;24.31;37.05;100761.64;108561;1257;59356;-61
2023/05/17 07:50:22;;;;;;;6.60;3.30;;;;;;;24.40;36.57;100761.13;108578;1257;67663;-62
2023/05/17 07:52:49;;;;;;;8.00;3.40;;;;;;;24.50;35.75;100762.13;108597;1257;63756;-62
2023/05/17 07:55:16;;;;;;;7.20;3.10;;;;;;;24.57;34.89;100759.79;108606;1257;64703;-61
2023/05/17 07:57:44;;;;;;;7.20;4.00;;;;;;;24.65;35.36;100763.57;108626;1258;58489;-61
2023/05/17 08:00:12;;;;;;;9.00;4.30;;;;;;;24.73;37.08;100762.79;108672;1258;58065;-61
2023/05/17 08:02:39;;;;;;;7.00;4.30;;;;;;;24.73;37.62;100762.17;108639;1257;66061;-61
2023/05/17 08:05:07;;;;;;;8.10;4.50;;;;;;;24.75;38.03;100764.19;108637;1257;62445;-61
2023/05/17 08:07:34;;;;;;;11.60;3.10;;;;;;;24.81;36.84;100759.21;108642;1259;66213;-61
2023/05/17 08:10:01;;;;;;;11.00;3.60;;;;;;;24.86;34.51;100760.37;108641;1257;58744;-62
2023/05/17 08:12:28;;;;;;;8.80;2.80;;;;;;;24.93;34.16;100767.08;104637;1257;60636;-61
2023/05/17 08:14:55;;;;;;;5.70;2.60;;;;;;;25.02;33.41;100770.29;104641;1257;68707;-60
2023/05/17 08:17:22;;;;;;;6.80;2.60;;;;;;;25.12;32.86;100769.13;104514;1257;63691;-60
2023/05/17 08:19:49;;;;;;;5.90;2.40;;;;;;;25.16;32.78;100767.88;104533;1262;65914;-60
2023/05/17 08:22:16;;;;;;;6.70;3.10;;;;;;;25.20;32.43;100767.82;104472;1262;60488;-60
2023/05/17 08:24:46;;;;;;;5.80;2.90;;;;;;;25.24;32.45;100766.71;104529;1262;60511;-60
2023/05/17 08:27:13;;;;;;;6.50;3.40;;;;;;;25.32;34.01;100766.52;104633;1257;67385;-60
2023/05/17 08:29:40;;;;;;;9.50;3.80;;;;;;;25.38;35.32;100767.36;104559;1259;63498;-60
2023/05/17 08:32:07;;;;;;;7.40;3.50;;;;;;;25.44;35.78;100773.77;104525;1259;66444;-60
2023/05/17 08:34:35;;;;;;;8.10;3.60;;;;;;;25.51;36.10;100773.13;104556;1263;60563;-60
2023/05/17 08:37:02;;;;;;;11.20;3.40;;;;;;;25.56;35.66;100771.20;108570;1258;60103;-63
2023/05/17 08:39:30;;;;;;;8.10;3.20;;;;;;;25.57;33.19;100776.12;108631;1257;67468;-60
2023/05/17 08:41:58;;;;;;;6.60;2.20;;;;;;;25.59;32.19;100775.09;108613;1257;64992;-60
2023/05/17 08:44:27;;;;;;;6.20;2.70;;;;;;;25.63;31.36;100771.48;108616;1257;66334;-62
2023/05/17 08:46:54;;;;;;;6.20;2.70;;;;;;;25.63;31.28;100773.24;108622;1258;60636;-60
2023/05/17 08:49:21;;;;;;;3.40;1.90;;;;;;;25.65;30.55;100773.20;108604;1257;61027;-61
2023/05/17 08:51:48;;;;;;;4.70;2.10;;;;;;;25.64;30.12;100774.25;108646;1259;67329;-58
2023/05/17 08:54:15;;;;;;;7.10;2.50;;;;;;;25.63;29.80;100776.20;108626;1257;63357;-61
2023/05/17 08:56:42;;;;;;;5.50;2.70;;;;;;;25.63;30.01;100777.11;108627;1257;65764;-61
2023/05/17 08:59:09;;;;;;;7.10;2.10;;;;;;;25.68;30.57;100774.27;108517;1258;58451;-61
2023/05/17 09:01:38;;;;;;;12.80;3.00;;;;;;;25.74;30.59;100772.21;108532;1257;59199;-62
2023/05/17 09:04:05;;;;;;;12.90;2.90;;;;;;;25.81;30.15;100772.92;108546;1262;66255;-64
2023/05/17 09:06:32;;;;;;;4.80;2.40;;;;;;;25.85;29.21;100768.27;108675;1257;63861;-60
2023/05/17 09:09:01;;;;;;;4.70;2.10;;;;;;;25.87;29.36;100772.00;108596;1257;66427;-62
2023/05/17 09:11:29;;;;;;;5.90;2.00;;;;;;;25.89;29.39;100775.42;108528;1257;60440;-62
2023/05/17 09:14:06;;;;;;;6.50;2.50;;;;;;;25.93;29.22;100774.16;108648;1258;59212;-61
2023/05/17 09:16:35;;;;;;;5.40;2.10;;;;;;;26.01;29.28;100776.84;108625;1260;67047;-64
2023/05/17 09:19:03;;;;;;;5.50;2.10;;;;;;;26.11;29.17;100772.39;108617;1257;63886;-61
2023/05/17 09:21:31;;;;;;;4.20;1.90;;;;;;;26.19;28.56;100772.17;108619;1257;66009;-61
2023/05/17 09:24:00;;;;;;;5.30;2.40;;;;;;;26.25;28.34;100770.27;108622;1257;58703;-61
2023/05/17 09:26:44;;;;;;;5.40;2.10;;;;;;;26.30;27.81;100769.33;108608;1258;60377;-62
2023/05/17 09:29:19;;;;;;;5.50;2.00;;;;;;;26.35;27.77;100769.51;108624;1257;67672;-63
2023/05/17 09:31:46;;;;;;;5.10;2.50;;;;;;;26.41;27.76;100768.39;108634;1260;63679;-62
2023/05/17 09:34:16;;;;;;;4.40;2.00;;;;;;;26.50;27.98;100768.07;108987;1255;66095;-61
2023/05/17 09:36:43;;;;;;;3.90;1.80;;;;;;;26.65;28.06;100764.45;108718;1254;58429;-60
2023/05/17 09:39:11;;;;;;;4.90;2.20;;;;;;;26.77;27.24;100763.63;108886;1253;58616;-60
2023/05/17 09:41:44;;;;;;;4.30;1.90;;;;;;;26.83;26.74;100761.40;108951;1253;66277;-61
2023/05/17 09:44:12;;;;;;;4.20;2.00;;;;;;;26.89;26.94;100763.63;108973;1253;62572;-60
2023/05/17 09:46:46;;;;;;;4.00;1.90;;;;;;;27.00;27.54;100762.88;108938;1254;65074;-61
2023/05/17 09:49:16;;;;;;;9.10;2.30;;;;;;;27.12;26.67;100763.78;108874;1255;58617;-62
2023/05/17 09:51:47;;;;;;;4.30;2.10;;;;;;;27.21;26.92;100759.20;108747;1254;58978;-61
2023/05/17 09:54:14;;;;;;;5.30;2.30;;;;;;;27.35;27.44;100758.65;108897;1253;66895;-62
2023/05/17 09:56:41;;;;;;;4.30;2.20;;;;;;;27.49;27.56;100758.70;108996;1253;62729;-62
2023/05/17 09:59:13;;;;;;;5.80;2.70;;;;;;;27.63;27.55;100760.92;108894;1254;65202;-62
2023/05/17 10:01:42;;;;;;;4.90;2.50;;;;;;;27.69;28.23;100759.89;108856;1256;58889;-63
2023/05/17 10:04:10;;;;;;;6.10;2.80;;;;;;;27.74;28.67;100757.02;108923;1253;59041;-62
2023/05/17 10:06:43;;;;;;;5.70;2.90;;;;;;;27.83;28.70;100753.35;109019;1253;64156;-61
2023/05/17 10:09:17;;;;;;;5.90;2.90;;;;;;;27.90;28.88;100749.27;108923;1253;62811;-63
2023/05/17 10:11:45;;;;;;;6.60;2.20;;;;;;;27.99;29.15;100751.29;108751;1254;65114;-62
2023/05/17 10:14:31;;;;;;;5.80;3.00;;;;;;;28.06;29.57;100754.08;108856;1255;58736;-62
2023/05/17 10:16:58;;;;;;;5.50;2.50;;;;;;;28.16;29.70;100751.30;108889;1259;58321;-62
2023/05/17 10:19:25;;;;;;;10.30;2.80;;;;;;;28.26;29.20;100750.32;108816;1258;65898;-62
2023/05/17 10:21:53;;;;;;;5.20;2.50;;;;;;;28.32;28.95;100749.88;108756;1253;63565;-63
2023/05/17 10:24:23;;;;;;;6.00;2.80;;;;;;;28.35;29.17;100746.06;108841;1253;66340;-64
2023/05/17 10:26:53;;;;;;;6.00;2.80;;;;;;;28.35;29.41;100749.76;108859;1254;58258;-63
2023/05/17 10:29:20;;;;;;;4.30;2.50;;;;;;;28.38;29.39;100751.10;108816;1254;59830;-63
2023/05/17 10:31:49;;;;;;;5.30;2.40;;;;;;;28.37;29.28;100752.64;108733;1253;68016;-63
2023/05/17 10:34:15;;;;;;;5.60;2.60;;;;;;;28.35;29.42;100748.56;108871;1253;63603;-60
2023/05/17 10:36:43;;;;;;;6.50;2.60;;;;;;;28.39;29.85;100752.20;108866;1253;66430;-63
2023/05/17 10:39:10;;;;;;;5.80;2.40;;;;;;;28.43;29.63;100750.69;108966;1253;60033;-62
2023/05/17 10:41:41;;;;;;;5.50;2.50;;;;;;;28.45;29.26;100746.90;108892;1253;58535;-61
2023/05/17 10:44:11;;;;;;;6.00;2.70;;;;;;;28.47;29.28;100749.23;108744;1253;66323;-62
2023/05/17 10:46:38;;;;;;;5.80;3.10;;;;;;;28.52;29.51;100749.15;108938;1253;65046;-62
2023/05/17 10:49:05;;;;;;;4.70;2.90;;;;;;;28.56;29.42;100746.70;108845;1254;64933;-64
2023/05/17 10:51:33;;;;;;;5.80;2.50;;;;;;;28.60;29.41;100748.39;108866;1253;59257;-62
2023/05/17 10:54:17;;;;;;;5.80;2.80;;;;;;;28.63;29.27;100748.46;109108;1253;58149;-62
2023/05/17 10:56:51;;;;;;;5.00;2.80;;;;;;;28.64;29.04;100745.57;108916;1253;67230;-61
2023/05/17 10:59:18;;;;;;;6.70;2.80;;;;;;;28.63;29.03;100746.67;108793;1254;62371;-62
2023/05/17 11:02:05;;;;;;;6.30;2.70;;;;;;;28.60;29.44;100749.73;108895;1254;65975;-62
2023/05/17 11:04:36;;;;;;;6.20;2.90;;;;;;;28.55;29.90;100748.29;108989;1254;58216;-62
2023/05/17 11:07:16;;;;;;;7.10;3.20;;;;;;;28.50;30.07;100742.44;109077;1253;58385;-62
2023/05/17 11:09:43;;;;;;;5.80;3.00;;;;;;;28.46;30.02;100744.17;108927;1253;65952;-62
2023/05/17 11:12:11;;;;;;;7.10;3.30;;;;;;;28.41;30.08;100745.71;108918;1253;63954;-63
2023/05/17 11:14:47;;;;;;;6.10;3.40;;;;;;;28.36;30.10;100745.50;108868;1256;65187;-62
2023/05/17 11:17:19;;;;;;;5.90;3.10;;;;;;;28.32;30.00;100742.36;108916;1253;59574;-62
2023/05/17 11:20:25;;;;;;;7.00;3.20;;;;;;;28.23;30.08;100745.61;108919;1253;58277;-61
2023/05/17 11:23:01;;;;;;;5.60;3.20;;;;;;;28.10;30.29;100747.64;108779;1259;67007;-63
2023/05/17 11:25:29;;;;;;;7.50;3.90;;;;;;;27.98;31.00;100747.40;108927;1253;62243;-62
2023/05/17 11:27:57;;;;;;;6.50;3.40;;;;;;;27.91;31.60;100746.77;108900;1253;66231;-63
2023/05/17 11:30:30;;;;;;;6.70;3.50;;;;;;;27.81;31.55;100746.41;108913;1256;58886;-62
2023/05/17 11:33:03;;;;;;;5.80;3.70;;;;;;;27.74;31.55;100747.09;108924;1255;58179;-61
2023/05/17 11:35:37;;;;;;;7.50;4.20;;;;;;;27.67;31.58;100745.41;108854;1254;66957;-62